Time;durP1;ratioP1;P1;durP2;ratioP2;P2;SDS_P1;SDS_P2;PMS_P1;PMS_P2;Temp;Humidity;BMP_temperature;BMP_pressure;BME280_temperature;BME280_humidity;BME280_pressure;Samples;Min_cycle;Max_cycle;Signal;HPM_P1;HPM_P2
2023/08/01 00:00:07;;;;;;;6.28;2.67;;;;;;;-145.69;52.86;51957.25;5098402;28;20198;-82
2023/08/01 00:02:33;;;;;;;5.10;2.53;;;;;;;-145.69;53.15;51965.16;5100114;28;20676;-81
2023/08/01 00:05:00;;;;;;;4.20;2.10;;;;;;;-145.69;52.64;51959.22;5097279;28;20221;-81
2023/08/01 00:07:28;;;;;;;6.53;2.50;;;;;;;-145.69;52.45;51963.19;5099422;28;20205;-82
2023/08/01 00:09:56;;;;;;;5.18;2.45;;;;;;;-145.69;52.44;51949.31;5097511;28;20686;-82
2023/08/01 00:12:22;;;;;;;4.68;2.60;;;;;;;-145.69;52.03;51990.91;5098180;28;20202;-81
2023/08/01 00:14:49;;;;;;;5.45;2.90;;;;;;;-145.69;52.02;51949.31;5093242;28;20233;-83
2023/08/01 00:17:15;;;;;;;6.10;2.38;;;;;;;-145.69;51.37;51963.19;5094711;28;20217;-81
2023/08/01 00:19:42;;;;;;;4.50;2.58;;;;;;;-145.69;49.83;51969.13;5098923;28;20202;-83
2023/08/01 00:22:09;;;;;;;6.18;2.80;;;;;;;-145.69;49.58;51921.59;5097147;28;20205;-80
2023/08/01 00:24:36;;;;;;;7.38;2.25;;;;;;;-145.69;49.39;51917.63;5095648;28;20664;-81
2023/08/01 00:27:05;;;;;;;5.65;2.78;;;;;;;-145.69;47.96;51953.28;5098564;28;20198;-81
2023/08/01 00:29:31;;;;;;;4.43;2.22;;;;;;;-145.69;47.40;51949.31;5096870;28;20234;-82
2023/08/01 00:31:57;;;;;;;6.65;2.47;;;;;;;-145.69;47.04;51945.34;5097610;28;20205;-83
2023/08/01 00:34:24;;;;;;;5.13;2.25;;;;;;;-145.69;47.53;51957.25;5096039;28;20225;-80
2023/08/01 00:36:50;;;;;;;5.05;2.15;;;;;;;-145.69;46.86;51953.28;5096603;28;20576;-81
2023/08/01 00:39:17;;;;;;;4.13;2.42;;;;;;;-145.69;46.82;51909.72;5096462;28;20217;-82
2023/08/01 00:41:43;;;;;;;5.80;2.47;;;;;;;-145.69;46.51;51927.53;5096714;28;20564;-83
2023/08/01 00:44:11;;;;;;;5.30;2.50;;;;;;;-145.69;46.54;51937.44;5097905;28;20193;-80
2023/08/01 00:46:38;;;;;;;6.25;2.50;;;;;;;-145.69;46.32;51931.50;5096495;28;20194;-82
2023/08/01 00:49:05;;;;;;;7.43;2.72;;;;;;;-145.69;45.90;51941.41;5097113;28;20208;-80
2023/08/01 00:51:33;;;;;;;6.80;2.65;;;;;;;-145.69;46.25;51933.47;5096441;28;20315;-82
2023/08/01 00:54:01;;;;;;;5.50;2.63;;;;;;;-145.69;46.64;51911.69;5095887;28;20236;-81
2023/08/01 00:56:28;;;;;;;5.32;2.55;;;;;;;-145.69;46.41;51933.47;5095775;28;20202;-82
2023/08/01 00:58:53;;;;;;;8.52;2.65;;;;;;;-145.69;47.00;51933.47;5095615;28;20209;-82
2023/08/01 01:01:21;;;;;;;5.20;2.25;;;;;;;-145.69;46.40;51925.56;5096251;28;20210;-82
2023/08/01 01:03:49;;;;;;;6.35;2.50;;;;;;;-145.69;46.59;51953.28;5094036;28;20198;-84
2023/08/01 01:06:23;;;;;;;5.30;2.20;;;;;;;-145.69;46.62;51889.91;5091110;28;20266;-82
2023/08/01 01:08:50;;;;;;;4.05;2.42;;;;;;;-145.69;46.38;51937.44;5075497;28;20209;-82
2023/08/01 01:11:16;;;;;;;7.53;2.40;;;;;;;-145.69;46.21;51901.78;5076127;28;20203;-82
2023/08/01 01:13:43;;;;;;;5.30;2.40;;;;;;;-145.69;46.77;51937.44;5075780;28;20209;-82
2023/08/01 01:16:09;;;;;;;4.80;3.03;;;;;;;-145.69;46.46;51907.72;5087805;28;20389;-81
2023/08/01 01:18:37;;;;;;;5.20;2.60;;;;;;;-145.69;46.04;51929.50;5095894;28;20195;-85
2023/08/01 01:21:05;;;;;;;5.03;2.53;;;;;;;-145.69;45.91;51953.28;5095482;28;20599;-84
2023/08/01 01:23:34;;;;;;;5.18;2.67;;;;;;;-145.69;46.08;51931.50;5095211;28;20746;-82
2023/08/01 01:26:02;;;;;;;6.00;2.45;;;;;;;-145.69;49.05;51929.50;5095824;28;20210;-82
2023/08/01 01:28:29;;;;;;;6.72;2.80;;;;;;;-145.69;49.72;51913.69;5094491;28;20210;-80
2023/08/01 01:30:57;;;;;;;6.20;2.30;;;;;;;-145.69;49.83;51947.34;5094460;28;20208;-81
2023/08/01 01:33:24;;;;;;;5.88;2.80;;;;;;;-145.69;53.22;51925.56;5094694;28;20255;-80
2023/08/01 01:35:50;;;;;;;5.07;2.60;;;;;;;-145.69;54.31;51969.13;5094124;28;20229;-80
2023/08/01 01:38:18;;;;;;;6.43;2.47;;;;;;;-145.69;55.99;51939.41;5094822;28;20205;-79
2023/08/01 01:40:45;;;;;;;5.35;2.78;;;;;;;-145.69;57.42;51967.13;5094383;28;20526;-83
2023/08/01 01:43:11;;;;;;;5.20;2.83;;;;;;;-145.69;58.96;51988.91;5094004;28;20202;-80
2023/08/01 01:45:38;;;;;;;5.35;2.53;;;;;;;-145.69;58.68;51981.00;5093379;28;20194;-81
2023/08/01 01:48:04;;;;;;;7.38;2.78;;;;;;;-145.69;58.71;52000.81;5093402;28;20202;-82
2023/08/01 01:50:31;;;;;;;8.82;2.72;;;;;;;-145.69;59.64;51971.09;5094032;28;20281;-80
2023/08/01 01:52:57;;;;;;;6.53;2.72;;;;;;;-145.69;59.26;51969.13;5093862;28;20284;-80
2023/08/01 01:55:25;;;;;;;4.40;2.67;;;;;;;-145.69;59.04;51961.19;5093279;28;20747;-80
2023/08/01 01:57:51;;;;;;;8.68;3.28;;;;;;;-145.69;59.81;51986.94;5093396;28;20194;-80
2023/08/01 02:00:18;;;;;;;7.07;2.63;;;;;;;-145.69;58.68;51969.13;5093303;28;20202;-81
2023/08/01 02:02:44;;;;;;;5.43;2.72;;;;;;;-145.69;58.98;51953.28;5093788;28;20205;-81
2023/08/01 02:05:11;;;;;;;4.32;2.40;;;;;;;-145.69;58.05;51981.00;5093711;28;20672;-80
2023/08/01 02:07:37;;;;;;;7.07;3.45;;;;;;;-145.69;57.94;51986.94;5093209;28;20206;-83
2023/08/01 02:10:04;;;;;;;5.43;2.80;;;;;;;-145.69;58.60;51925.56;5092951;28;20573;-81
2023/08/01 02:12:34;;;;;;;6.00;2.60;;;;;;;-145.69;58.12;51965.16;5093089;28;20202;-80
2023/08/01 02:15:01;;;;;;;5.95;2.90;;;;;;;-145.69;58.12;51953.28;5092943;28;20238;-81
2023/08/01 02:17:27;;;;;;;6.18;2.78;;;;;;;-145.69;58.02;51933.47;5093477;28;20209;-81
2023/08/01 02:19:54;;;;;;;6.00;2.92;;;;;;;-145.69;57.75;51959.22;5093157;28;20202;-81
2023/08/01 02:22:20;;;;;;;5.70;2.97;;;;;;;-145.69;56.91;51951.28;5092789;28;20208;-81
2023/08/01 02:24:47;;;;;;;8.73;3.65;;;;;;;-145.69;56.52;51943.38;5092669;28;20198;-81
2023/08/01 02:27:13;;;;;;;5.80;3.08;;;;;;;-145.69;56.42;51961.19;5093460;28;20206;-83
2023/08/01 02:29:41;;;;;;;7.75;2.50;;;;;;;-145.69;56.17;51965.16;5094684;28;20213;-83
2023/08/01 02:32:08;;;;;;;5.80;2.45;;;;;;;-145.69;56.18;51963.19;5094521;28;20240;-80
2023/08/01 02:34:35;;;;;;;5.43;3.00;;;;;;;-145.69;55.98;51965.16;5093746;28;20309;-80
2023/08/01 02:37:05;;;;;;;7.07;2.95;;;;;;;-145.69;54.32;51961.19;5098728;28;20656;-82
2023/08/01 02:39:33;;;;;;;6.28;2.63;;;;;;;-145.69;53.54;51939.41;5100613;28;20288;-81
2023/08/01 02:42:03;;;;;;;5.43;2.55;;;;;;;-145.69;53.58;51957.25;5100296;28;20198;-85
2023/08/01 02:44:30;;;;;;;5.75;2.60;;;;;;;-145.69;53.00;51979.03;5103782;28;20259;-83
2023/08/01 02:46:57;;;;;;;6.35;2.60;;;;;;;-145.69;53.06;51973.06;5104388;28;20284;-83
2023/08/01 02:49:23;;;;;;;4.53;2.45;;;;;;;-145.69;52.71;51943.38;5103545;28;20216;-82
2023/08/01 02:51:49;;;;;;;12.07;2.40;;;;;;;-145.69;52.61;51965.16;5101322;28;20676;-82
2023/08/01 02:54:19;;;;;;;5.45;3.05;;;;;;;-145.69;51.73;51953.28;5103238;28;20221;-82
2023/08/01 02:56:53;;;;;;;5.22;2.58;;;;;;;-145.69;52.42;51955.25;5102809;28;20201;-82
2023/08/01 02:59:22;;;;;;;6.32;2.63;;;;;;;-145.69;51.25;51975.06;5100648;28;20201;-82
2023/08/01 03:01:48;;;;;;;5.95;2.67;;;;;;;-145.69;52.21;51951.28;5101378;28;20198;-80
2023/08/01 03:04:19;;;;;;;10.60;2.80;;;;;;;-145.69;51.43;51919.63;5093515;28;20209;-80
2023/08/01 03:06:45;;;;;;;7.40;2.40;;;;;;;-145.69;50.04;51973.06;5079916;28;20225;-81
2023/08/01 03:09:12;;;;;;;8.00;2.90;;;;;;;-145.69;50.85;51945.34;5084466;28;20194;-82
2023/08/01 03:11:38;;;;;;;7.20;2.38;;;;;;;-145.69;51.73;51955.25;5100609;28;20636;-83
2023/08/01 03:14:05;;;;;;;7.10;2.40;;;;;;;-145.69;50.17;51955.25;5101046;28;20567;-80
2023/08/01 03:16:32;;;;;;;5.90;2.28;;;;;;;-145.69;50.54;51937.44;5101498;28;20317;-82
2023/08/01 03:19:00;;;;;;;9.88;2.55;;;;;;;-145.69;49.84;51957.25;5100475;28;20561;-82
2023/08/01 03:21:29;;;;;;;8.57;2.80;;;;;;;-145.69;49.21;51969.13;5100156;28;20271;-80
2023/08/01 03:23:57;;;;;;;5.28;2.38;;;;;;;-145.69;49.61;51941.41;5100486;28;20194;-80
2023/08/01 03:26:23;;;;;;;6.13;2.58;;;;;;;-145.69;48.93;51953.28;5101095;28;20201;-82
2023/08/01 03:28:49;;;;;;;4.25;2.38;;;;;;;-145.69;49.16;51929.50;5100978;28;20201;-81
2023/08/01 03:31:16;;;;;;;5.72;2.72;;;;;;;-145.69;49.78;51937.44;5100803;28;20254;-83
2023/08/01 03:33:43;;;;;;;4.60;2.22;;;;;;;-145.69;50.39;51961.19;5100099;28;20198;-82
2023/08/01 03:36:09;;;;;;;7.72;2.38;;;;;;;-145.69;50.49;51953.28;5100469;28;20229;-80
2023/08/01 03:38:38;;;;;;;6.43;2.47;;;;;;;-145.69;49.53;51935.47;5101341;28;20204;-83
2023/08/01 03:41:05;;;;;;;5.63;2.63;;;;;;;-145.69;49.99;51947.34;5100719;28;20198;-81
2023/08/01 03:43:31;;;;;;;5.70;2.83;;;;;;;-145.69;49.33;51953.28;5100092;28;20201;-81
2023/08/01 03:45:58;;;;;;;7.53;2.70;;;;;;;-145.69;49.61;51965.16;5100049;28;20194;-82
2023/08/01 03:48:24;;;;;;;5.68;2.33;;;;;;;-145.69;48.95;51981.00;5096566;28;20584;-82
2023/08/01 03:50:51;;;;;;;8.82;2.50;;;;;;;-145.69;48.67;51975.06;5097280;28;20245;-83
2023/08/01 03:53:18;;;;;;;5.78;2.20;;;;;;;-145.69;48.53;51955.25;5097494;28;20280;-83
2023/08/01 03:55:47;;;;;;;11.25;2.85;;;;;;;-145.69;47.98;51919.63;5076834;28;20226;-81
2023/08/01 03:58:14;;;;;;;8.70;2.60;;;;;;;-145.69;48.07;51933.47;5077838;28;20226;-82
2023/08/01 04:00:41;;;;;;;4.72;2.17;;;;;;;-145.69;48.39;51953.28;5077023;28;20257;-83
2023/08/01 04:03:07;;;;;;;6.72;2.58;;;;;;;-145.69;48.46;51933.47;5078046;28;20199;-81
2023/08/01 04:05:34;;;;;;;6.55;2.60;;;;;;;-145.69;48.63;51957.25;5078296;28;20210;-81
2023/08/01 04:08:00;;;;;;;8.95;2.45;;;;;;;-145.69;48.63;51939.41;5097085;28;20293;-82
2023/08/01 04:10:27;;;;;;;5.90;2.60;;;;;;;-145.69;49.68;51941.41;5097629;28;20205;-81
2023/08/01 04:12:55;;;;;;;7.93;2.88;;;;;;;-145.69;49.34;51933.47;5098788;28;20225;-82
2023/08/01 04:15:21;;;;;;;9.70;3.03;;;;;;;-145.69;49.78;52000.81;5095856;28;20234;-82
2023/08/01 04:17:48;;;;;;;7.40;2.28;;;;;;;-145.69;49.93;51951.28;5098175;28;20208;-82
2023/08/01 04:20:15;;;;;;;6.97;2.65;;;;;;;-145.69;50.24;51986.94;5097678;28;20202;-82
2023/08/01 04:22:41;;;;;;;6.00;2.60;;;;;;;-145.69;49.59;51945.34;5096671;28;20202;-82
2023/08/01 04:25:09;;;;;;;8.15;3.10;;;;;;;-145.69;50.11;51969.13;5097805;28;20201;-82
2023/08/01 04:27:35;;;;;;;6.88;2.85;;;;;;;-145.69;50.23;51984.97;5098411;28;20198;-82
2023/08/01 04:30:04;;;;;;;5.57;2.55;;;;;;;-145.69;49.75;51939.41;5096117;28;20198;-81
2023/08/01 04:32:30;;;;;;;5.20;2.47;;;;;;;-145.69;50.06;51977.03;5096867;28;20371;-82
2023/08/01 04:34:57;;;;;;;8.38;3.53;;;;;;;-145.69;50.67;51953.28;5096085;28;20198;-82
2023/08/01 04:37:25;;;;;;;7.45;2.65;;;;;;;-145.69;50.57;51965.16;5096344;28;20237;-81
2023/08/01 04:39:52;;;;;;;7.78;3.17;;;;;;;-145.69;50.32;51994.88;5096944;28;20197;-82
2023/08/01 04:42:18;;;;;;;6.53;2.70;;;;;;;-145.69;50.62;51965.16;5095649;28;20209;-82
2023/08/01 04:44:45;;;;;;;8.73;3.13;;;;;;;-145.69;50.93;51977.03;5095356;28;20249;-80
2023/08/01 04:47:14;;;;;;;8.05;2.92;;;;;;;-145.69;50.92;51967.13;5096840;28;20202;-82
2023/08/01 04:49:41;;;;;;;11.38;2.92;;;;;;;-145.69;52.10;51996.84;5095543;28;20683;-81
2023/08/01 04:52:08;;;;;;;6.07;2.85;;;;;;;-145.69;52.26;52008.72;5094616;28;20721;-82
2023/08/01 04:54:35;;;;;;;7.35;3.20;;;;;;;-145.69;51.49;51996.84;5096288;28;20198;-81
2023/08/01 04:57:01;;;;;;;8.25;3.17;;;;;;;-145.69;52.08;51973.06;5096839;28;20236;-82
2023/08/01 04:59:28;;;;;;;5.13;2.65;;;;;;;-145.69;51.07;51969.13;5095318;28;20665;-81
2023/08/01 05:01:54;;;;;;;6.60;2.80;;;;;;;-145.69;51.39;51957.25;5095675;28;20203;-84
2023/08/01 05:04:22;;;;;;;9.25;2.92;;;;;;;-145.69;51.10;51957.25;5095358;28;20209;-81
2023/08/01 05:06:48;;;;;;;5.22;2.47;;;;;;;-145.69;50.87;51957.25;5084703;28;20195;-83
2023/08/01 05:09:15;;;;;;;5.07;2.50;;;;;;;-145.69;49.83;51951.28;5074511;28;20201;-83
2023/08/01 05:11:41;;;;;;;5.85;2.58;;;;;;;-145.69;50.00;51943.38;5075074;28;20195;-82
2023/08/01 05:14:08;;;;;;;5.15;2.30;;;;;;;-145.69;48.82;52000.81;5075335;28;20199;-82
2023/08/01 05:16:34;;;;;;;3.83;2.22;;;;;;;-145.69;47.07;51986.94;5077408;28;20297;-82
2023/08/01 05:19:01;;;;;;;4.10;1.92;;;;;;;-145.69;47.29;51957.25;5095183;28;20657;-84
2023/08/01 05:21:29;;;;;;;3.80;1.75;;;;;;;-145.69;45.97;51961.19;5096052;28;20198;-83
2023/08/01 05:23:55;;;;;;;5.05;2.40;;;;;;;-145.69;46.79;51977.03;5095806;28;20276;-80
2023/08/01 05:26:22;;;;;;;3.58;2.15;;;;;;;-145.69;46.71;51982.97;5095753;28;20213;-84
2023/08/01 05:28:48;;;;;;;5.82;2.70;;;;;;;-145.69;46.55;51955.25;5094279;28;20721;-81
2023/08/01 05:31:15;;;;;;;7.07;2.70;;;;;;;-145.69;45.97;51969.13;5094511;28;20202;-82
2023/08/01 05:33:41;;;;;;;6.20;2.78;;;;;;;-145.69;46.03;52000.81;5094749;28;20568;-82
2023/08/01 05:36:08;;;;;;;4.25;2.67;;;;;;;-145.69;45.19;51957.25;5094595;28;20735;-82
2023/08/01 05:38:36;;;;;;;5.95;3.00;;;;;;;-145.69;44.14;51955.25;5094943;28;20209;-82
2023/08/01 05:41:02;;;;;;;7.43;2.90;;;;;;;-145.69;45.42;51988.91;5093759;28;20433;-82
2023/08/01 05:43:29;;;;;;;7.78;2.83;;;;;;;-145.69;43.94;51986.94;5094993;28;20191;-85
2023/08/01 05:45:55;;;;;;;7.97;3.10;;;;;;;-145.69;44.35;51941.41;5094839;28;20201;-82
2023/08/01 05:48:22;;;;;;;6.38;2.88;;;;;;;-145.69;43.38;51988.91;5095035;28;20204;-84
2023/08/01 05:50:48;;;;;;;7.05;3.55;;;;;;;-145.69;44.50;51951.28;5094337;28;20214;-83
2023/08/01 05:53:15;;;;;;;5.97;3.35;;;;;;;-145.69;43.13;51959.22;5094813;28;20201;-83
2023/08/01 05:55:43;;;;;;;6.07;3.40;;;;;;;-145.69;42.21;51947.34;5094193;28;20739;-83
2023/08/01 05:58:09;;;;;;;6.40;2.90;;;;;;;-145.69;41.80;51915.66;5094779;28;20198;-82
2023/08/01 06:00:36;;;;;;;5.80;2.85;;;;;;;-145.69;42.13;51953.28;5094727;28;20209;-83
2023/08/01 06:03:02;;;;;;;7.90;3.20;;;;;;;-145.69;41.35;51953.28;5095211;28;20202;-82
2023/08/01 06:05:29;;;;;;;7.07;2.85;;;;;;;-145.69;42.11;51947.34;5094241;28;20193;-81
2023/08/01 06:07:55;;;;;;;5.82;3.00;;;;;;;-145.69;42.08;51977.03;5094605;28;20198;-82
2023/08/01 06:10:22;;;;;;;7.15;2.95;;;;;;;-145.69;42.10;51965.16;5094705;28;20213;-83
2023/08/01 06:12:50;;;;;;;7.68;3.35;;;;;;;-145.69;42.37;51963.19;5093675;28;20229;-82
2023/08/01 06:15:17;;;;;;;5.53;3.20;;;;;;;-145.69;41.59;51981.00;5094192;28;20230;-82
2023/08/01 06:17:43;;;;;;;10.20;3.00;;;;;;;-145.69;41.95;51977.03;5094292;28;20289;-81
2023/08/01 06:20:11;;;;;;;7.88;3.22;;;;;;;-145.69;42.13;51953.28;5094094;28;20198;-83
2023/08/01 06:22:38;;;;;;;6.20;2.92;;;;;;;-145.69;42.78;51981.00;5095825;28;20216;-83
2023/08/01 06:25:05;;;;;;;7.90;3.20;;;;;;;-145.69;41.99;51969.13;5093423;28;20225;-83
2023/08/01 06:27:31;;;;;;;6.28;3.20;;;;;;;-145.69;41.99;51951.28;5094034;28;20284;-82
2023/08/01 06:29:59;;;;;;;6.18;3.03;;;;;;;-145.69;41.36;51957.25;5094298;28;20198;-82
2023/08/01 06:32:26;;;;;;;6.35;3.20;;;;;;;-145.69;42.03;51963.19;5094332;28;20198;-83
2023/08/01 06:34:53;;;;;;;6.72;2.97;;;;;;;-145.69;41.08;51935.47;5093906;28;20198;-82
2023/08/01 06:37:19;;;;;;;7.75;3.58;;;;;;;-145.69;42.27;51945.34;5094309;28;20225;-82
2023/08/01 06:39:46;;;;;;;6.97;3.15;;;;;;;-145.69;41.64;51925.56;5094984;28;20256;-82
2023/08/01 06:42:12;;;;;;;8.95;3.83;;;;;;;-145.69;42.26;51951.28;5094218;28;20218;-84
2023/08/01 06:44:39;;;;;;;6.00;3.50;;;;;;;-145.69;42.62;51965.16;5096436;28;20237;-82
2023/08/01 06:47:07;;;;;;;5.78;3.25;;;;;;;-145.69;42.38;51937.44;5094242;28;20202;-81
2023/08/01 06:49:33;;;;;;;6.68;3.65;;;;;;;-145.69;43.07;51933.47;5093383;28;20202;-82
2023/08/01 06:52:00;;;;;;;7.88;3.75;;;;;;;-145.69;43.66;51965.16;5095281;28;20206;-82
2023/08/01 06:54:27;;;;;;;6.82;3.33;;;;;;;-145.69;44.39;51945.34;5095720;28;20255;-83
2023/08/01 06:56:53;;;;;;;5.65;2.63;;;;;;;-145.69;44.38;51965.16;5095762;28;20229;-83
2023/08/01 06:59:21;;;;;;;5.78;3.05;;;;;;;-145.69;45.06;51955.25;5096471;28;20194;-83
2023/08/01 07:01:47;;;;;;;6.95;3.42;;;;;;;-145.69;45.83;51953.28;5093885;28;20232;-83
2023/08/01 07:04:15;;;;;;;6.67;3.30;;;;;;;-145.69;47.15;51951.28;5094497;28;20437;-83
2023/08/01 07:06:42;;;;;;;6.80;3.25;;;;;;;-145.69;48.92;51975.06;5093932;28;20194;-82
2023/08/01 07:09:08;;;;;;;7.10;3.50;;;;;;;-145.69;48.61;51953.28;5095070;28;20208;-83
2023/08/01 07:11:35;;;;;;;6.38;2.80;;;;;;;-145.69;49.62;51986.94;5095805;28;20202;-82
2023/08/01 07:14:01;;;;;;;5.35;2.90;;;;;;;-145.69;47.43;51937.44;5095950;28;20198;-82
2023/08/01 07:16:28;;;;;;;7.63;3.30;;;;;;;-145.69;47.20;51949.31;5094569;28;20720;-82
2023/08/01 07:18:56;;;;;;;6.70;2.70;;;;;;;-145.69;49.85;51925.56;5094524;28;20555;-84
2023/08/01 07:21:23;;;;;;;5.57;2.85;;;;;;;-145.69;53.39;51981.00;5095999;28;20194;-82
2023/08/01 07:23:50;;;;;;;6.03;3.00;;;;;;;-145.69;53.18;51977.03;5099128;28;20658;-81
2023/08/01 07:26:16;;;;;;;7.05;3.08;;;;;;;-145.69;53.25;51981.00;5100921;28;20281;-81
2023/08/01 07:28:43;;;;;;;7.47;2.92;;;;;;;-145.69;52.75;51986.94;5104473;28;20201;-82
2023/08/01 07:31:09;;;;;;;8.70;3.67;;;;;;;-145.69;53.92;51949.31;5107350;28;20269;-81
2023/08/01 07:33:36;;;;;;;5.22;2.92;;;;;;;-145.69;55.12;51992.88;5098935;28;20202;-82
2023/08/01 07:36:04;;;;;;;7.47;3.42;;;;;;;-145.69;56.77;52006.75;5097868;28;20228;-83
2023/08/01 07:38:32;;;;;;;5.70;2.78;;;;;;;-145.69;54.64;51959.22;5099767;28;20619;-81
2023/08/01 07:41:03;;;;;;;6.85;3.13;;;;;;;-145.69;53.41;51990.91;5100155;28;20251;-82
2023/08/01 07:43:29;;;;;;;4.72;2.65;;;;;;;-145.69;51.88;51979.03;5097553;28;20206;-84
2023/08/01 07:45:57;;;;;;;7.40;3.00;;;;;;;-145.69;54.26;51988.91;5096081;28;20803;-82
2023/08/01 07:48:23;;;;;;;5.22;2.60;;;;;;;-145.69;51.81;51957.25;5096192;28;20448;-83
2023/08/01 07:50:50;;;;;;;7.32;2.75;;;;;;;-145.69;50.19;51953.28;5097162;28;20538;-83
2023/08/01 07:53:17;;;;;;;5.65;2.78;;;;;;;-145.69;50.11;51951.28;5096569;28;20198;-86
2023/08/01 07:55:44;;;;;;;5.60;2.50;;;;;;;-145.69;51.86;51973.06;5097158;28;20202;-82
2023/08/01 07:58:11;;;;;;;7.63;2.60;;;;;;;-145.69;51.82;51973.06;5096143;28;20692;-81
2023/08/01 08:00:38;;;;;;;5.65;2.20;;;;;;;-145.69;51.88;51961.19;5096982;28;20194;-85
2023/08/01 08:03:05;;;;;;;3.28;1.77;;;;;;;-145.69;51.20;51963.19;5096468;28;20208;-83
2023/08/01 08:05:32;;;;;;;3.42;1.80;;;;;;;-145.69;49.87;51982.97;5095841;28;20194;-83
2023/08/01 08:07:58;;;;;;;4.03;2.00;;;;;;;-145.69;51.10;51951.28;5095209;28;20198;-83
2023/08/01 08:10:25;;;;;;;5.75;1.52;;;;;;;-145.69;52.04;51971.09;5097086;28;20808;-82
2023/08/01 08:12:53;;;;;;;3.67;1.67;;;;;;;-145.69;53.31;51949.31;5097194;28;20213;-85
2023/08/01 08:15:21;;;;;;;5.00;1.52;;;;;;;-145.69;54.94;51955.25;5096272;28;20580;-85
2023/08/01 08:17:47;;;;;;;2.80;1.70;;;;;;;-145.69;57.78;51992.88;5096335;28;20279;-81
2023/08/01 08:20:14;;;;;;;3.55;1.83;;;;;;;-145.69;58.29;51969.13;5096207;28;20201;-84
2023/08/01 08:22:40;;;;;;;5.15;1.95;;;;;;;-145.69;59.29;52008.72;5095276;28;20193;-81
2023/08/01 08:25:07;;;;;;;3.72;2.05;;;;;;;-145.69;59.69;51973.06;5096799;28;20208;-83
2023/08/01 08:27:34;;;;;;;5.85;1.92;;;;;;;-145.69;61.21;51982.97;5096245;28;20204;-81
2023/08/01 08:30:01;;;;;;;2.35;1.52;;;;;;;-145.69;61.80;51973.06;5097006;28;20710;-83
2023/08/01 08:32:28;;;;;;;2.45;1.45;;;;;;;-145.69;62.87;51998.81;5097972;28;20206;-81
2023/08/01 08:34:54;;;;;;;2.38;1.70;;;;;;;-145.69;63.64;51981.00;5094498;28;20602;-82
2023/08/01 08:37:21;;;;;;;7.30;1.80;;;;;;;-145.69;64.04;51981.00;5094565;28;20232;-81
2023/08/01 08:39:48;;;;;;;4.68;1.70;;;;;;;-145.69;66.08;52020.59;5089648;28;20202;-81
2023/08/01 08:42:14;;;;;;;2.20;1.27;;;;;;;-145.69;65.36;51984.97;5095711;28;20293;-81
2023/08/01 08:44:44;;;;;;;2.67;1.55;;;;;;;-145.69;64.54;52008.72;5095783;28;20198;-82
2023/08/01 08:47:13;;;;;;;3.05;1.45;;;;;;;-145.69;66.63;52008.72;5096876;28;20292;-83
2023/08/01 08:49:41;;;;;;;4.47;1.10;;;;;;;-145.69;67.03;51979.03;5095652;28;20205;-81
2023/08/01 08:52:08;;;;;;;2.22;1.10;;;;;;;-145.69;66.85;52020.59;5094985;28;20210;-81
2023/08/01 08:54:37;;;;;;;2.38;1.30;;;;;;;-145.69;66.33;51992.88;5094421;28;20198;-81
2023/08/01 08:57:06;;;;;;;3.70;1.48;;;;;;;-145.69;66.40;51996.84;5095060;28;20229;-81
2023/08/01 08:59:34;;;;;;;2.65;1.40;;;;;;;-145.69;67.19;51992.88;5094552;28;20201;-81
2023/08/01 09:02:01;;;;;;;2.05;1.45;;;;;;;-145.69;67.17;52004.75;5094416;28;20209;-82
2023/08/01 09:04:29;;;;;;;3.53;1.65;;;;;;;-145.69;66.49;52002.78;5094391;28;20252;-81
2023/08/01 09:06:59;;;;;;;4.97;1.70;;;;;;;-145.69;66.55;51973.06;5094414;28;20198;-82
2023/08/01 09:09:27;;;;;;;1.77;1.23;;;;;;;-145.69;65.78;52000.81;5079607;28;20199;-80
2023/08/01 09:11:56;;;;;;;2.70;1.30;;;;;;;-145.69;64.54;51984.97;5083753;28;20217;-81
2023/08/01 09:14:23;;;;;;;1.90;1.13;;;;;;;-145.69;63.00;51984.97;5094114;28;20285;-80
2023/08/01 09:16:49;;;;;;;2.03;1.30;;;;;;;-145.69;63.12;51961.19;5093812;28;20241;-81
2023/08/01 09:19:17;;;;;;;2.10;1.30;;;;;;;-145.69;61.31;51990.91;5093552;28;20214;-80
2023/08/01 09:21:46;;;;;;;2.28;1.45;;;;;;;-145.69;61.48;51984.97;5082533;28;20190;-80
2023/08/01 09:24:14;;;;;;;2.13;1.50;;;;;;;-145.69;60.45;51967.13;5094822;28;20661;-80
2023/08/01 09:26:41;;;;;;;2.20;1.40;;;;;;;-145.69;60.11;51969.13;5094113;28;20204;-79
2023/08/01 09:29:08;;;;;;;2.08;1.23;;;;;;;-145.69;60.33;51945.34;5094476;28;20216;-81
2023/08/01 09:31:37;;;;;;;3.47;1.20;;;;;;;-145.69;60.48;51941.41;5093884;28;20652;-80
2023/08/01 09:34:06;;;;;;;2.25;1.10;;;;;;;-145.69;60.34;52002.78;5093753;28;20258;-81
2023/08/01 09:36:33;;;;;;;1.60;1.15;;;;;;;-145.69;60.46;51977.03;5094315;28;20267;-81
2023/08/01 09:39:02;;;;;;;2.45;1.30;;;;;;;-145.69;60.72;51949.31;5093938;28;20546;-79
2023/08/01 09:41:29;;;;;;;1.73;0.80;;;;;;;-145.69;61.63;51975.06;5093214;28;20288;-78
2023/08/01 09:43:56;;;;;;;1.25;1.00;;;;;;;-145.69;61.50;51981.00;5093671;28;20198;-79
2023/08/01 09:46:23;;;;;;;1.80;1.20;;;;;;;-145.69;62.49;52004.75;5092465;28;20201;-82
2023/08/01 09:48:50;;;;;;;2.38;1.00;;;;;;;-145.69;62.57;51975.06;5093342;28;20206;-80
2023/08/01 09:51:17;;;;;;;1.48;0.90;;;;;;;-145.69;62.62;51990.91;5093127;28;20214;-80
2023/08/01 09:53:49;;;;;;;1.70;1.10;;;;;;;-145.69;62.51;51961.19;5093170;28;20198;-80
2023/08/01 09:56:20;;;;;;;1.02;0.80;;;;;;;-145.69;62.74;51961.19;5093789;28;20601;-81
2023/08/01 09:58:48;;;;;;;1.17;0.80;;;;;;;-145.69;63.19;51992.88;5093196;28;20229;-80
2023/08/01 10:01:15;;;;;;;1.20;1.00;;;;;;;-145.69;63.81;52000.81;5093002;28;20198;-81
2023/08/01 10:03:46;;;;;;;3.35;0.75;;;;;;;-145.69;63.69;52000.81;5093702;28;20200;-80
2023/08/01 10:06:15;;;;;;;1.50;1.00;;;;;;;-145.69;65.23;52016.66;5093115;28;20263;-80
2023/08/01 10:08:42;;;;;;;1.00;0.73;;;;;;;-145.69;65.98;51979.03;5092987;28;20206;-80
2023/08/01 10:11:09;;;;;;;1.50;0.80;;;;;;;-145.69;65.05;52014.66;5093346;28;20208;-81
2023/08/01 10:13:38;;;;;;;2.25;0.70;;;;;;;-145.69;63.75;51990.91;5093081;28;20202;-80
2023/08/01 10:16:06;;;;;;;0.60;0.50;;;;;;;-145.69;63.30;52004.75;5092817;28;20756;-80
2023/08/01 10:18:34;;;;;;;2.38;0.85;;;;;;;-145.69;62.90;51998.81;5093058;28;20237;-80
2023/08/01 10:21:01;;;;;;;0.60;0.50;;;;;;;-145.69;61.54;51941.41;5092587;28;20194;-81
2023/08/01 10:23:29;;;;;;;0.50;0.50;;;;;;;-145.69;58.88;51949.31;5092811;28;20198;-81
2023/08/01 10:25:56;;;;;;;0.60;0.52;;;;;;;-145.69;57.97;51973.06;5092777;28;20584;-80
2023/08/01 10:28:32;;;;;;;0.55;0.50;;;;;;;-145.69;56.55;51981.00;5092832;28;20201;-80
2023/08/01 10:31:09;;;;;;;1.27;0.50;;;;;;;-145.69;56.70;51969.13;5093095;28;20206;-81
2023/08/01 10:33:36;;;;;;;0.80;0.65;;;;;;;-145.69;61.19;51977.03;5078498;28;20201;-81
2023/08/01 10:36:13;;;;;;;1.92;0.70;;;;;;;-145.69;63.28;51996.84;5093299;28;20202;-79
2023/08/01 10:38:47;;;;;;;1.35;0.77;;;;;;;-145.69;65.98;51975.06;5094858;28;20237;-81
2023/08/01 10:41:19;;;;;;;2.70;0.90;;;;;;;-145.69;66.75;51967.13;5093577;28;20569;-80
2023/08/01 10:43:46;;;;;;;5.80;1.23;;;;;;;-145.69;69.45;51981.00;5095152;28;20201;-81
2023/08/01 10:46:14;;;;;;;1.45;0.80;;;;;;;-145.69;69.48;51984.97;5095858;28;20556;-80
2023/08/01 10:48:49;;;;;;;0.75;0.52;;;;;;;-145.69;69.44;52008.72;5096478;28;20221;-82
2023/08/01 10:51:16;;;;;;;1.60;0.60;;;;;;;-145.69;70.39;51979.03;5094002;28;20209;-81
2023/08/01 10:53:45;;;;;;;1.33;0.73;;;;;;;-145.69;70.33;51998.81;5092646;28;20205;-81
2023/08/01 10:56:19;;;;;;;1.20;0.75;;;;;;;-145.69;68.92;51996.84;5092778;28;20198;-80
2023/08/01 10:58:46;;;;;;;1.48;0.68;;;;;;;-145.69;69.62;51953.28;5097191;28;20231;-81
2023/08/01 11:01:14;;;;;;;0.98;0.50;;;;;;;-145.69;68.87;51971.09;5097246;28;20225;-82
2023/08/01 11:03:44;;;;;;;2.38;0.90;;;;;;;-145.69;64.50;51957.25;5094132;28;20194;-82
2023/08/01 11:06:10;;;;;;;1.40;0.73;;;;;;;-145.69;63.89;51941.41;5095052;28;20203;-82
2023/08/01 11:08:38;;;;;;;1.88;0.90;;;;;;;-145.69;60.76;51961.19;5081258;28;20210;-82
2023/08/01 11:11:06;;;;;;;0.98;0.85;;;;;;;-145.69;60.42;51955.25;5098732;28;20190;-83
2023/08/01 11:13:34;;;;;;;2.05;0.90;;;;;;;-145.69;61.02;51937.44;5104394;28;20597;-83
2023/08/01 11:16:03;;;;;;;2.00;0.80;;;;;;;-145.69;63.00;51975.06;5100400;28;20277;-84